Time;durP1;ratioP1;P1;durP2;ratioP2;P2;SDS_P1;SDS_P2;PMS_P1;PMS_P2;Temp;Humidity;BMP_temperature;BMP_pressure;BME280_temperature;BME280_humidity;BME280_pressure;Samples;Min_cycle;Max_cycle;Signal;HPM_P1;HPM_P2
2023/07/14 00:01:40;;;;;;;28.50;12.48;;;29.60;99.90;;;;;;5013334;28;20113;-51
2023/07/14 00:04:14;;;;;;;29.60;13.30;;;29.60;99.90;;;;;;5013725;28;20026;-52
2023/07/14 00:06:41;;;;;;;32.95;12.68;;;29.60;99.90;;;;;;5013871;28;20022;-49
2023/07/14 00:09:33;;;;;;;25.90;12.95;;;29.60;99.90;;;;;;5013847;28;20018;-51
2023/07/14 00:12:00;;;;;;;34.28;13.15;;;29.60;99.90;;;;;;5001093;28;20037;-52
2023/07/14 00:14:26;;;;;;;31.63;12.95;;;29.60;99.90;;;;;;5008396;28;20360;-50
2023/07/14 00:16:52;;;;;;;29.50;12.73;;;29.50;99.90;;;;;;5013711;28;20030;-51
2023/07/14 00:19:19;;;;;;;32.20;13.73;;;29.60;99.90;;;;;;5013327;28;20265;-51
2023/07/14 00:21:46;;;;;;;27.95;11.98;;;29.50;99.90;;;;;;5013811;28;20025;-50
2023/07/14 00:24:14;;;;;;;29.40;12.88;;;29.50;99.90;;;;;;5012210;28;20030;-49
2023/07/14 00:26:41;;;;;;;34.90;12.55;;;29.50;99.90;;;;;;5029032;28;20422;-49
2023/07/14 00:29:25;;;;;;;36.35;13.18;;;29.50;99.90;;;;;;5013692;28;20026;-50
2023/07/14 00:31:51;;;;;;;30.02;12.35;;;29.50;99.90;;;;;;5012976;28;20034;-51
2023/07/14 00:34:17;;;;;;;22.70;11.13;;;29.50;99.90;;;;;;5013740;28;20026;-50
2023/07/14 00:36:42;;;;;;;33.78;11.90;;;29.50;99.90;;;;;;5013421;28;20478;-49
2023/07/14 00:39:08;;;;;;;30.30;12.77;;;29.40;99.90;;;;;;5013168;28;20018;-50
2023/07/14 00:41:34;;;;;;;27.25;12.07;;;29.40;99.90;;;;;;5013405;28;20033;-50
2023/07/14 00:44:00;;;;;;;31.10;13.05;;;29.40;99.90;;;;;;5013192;28;20026;-51
2023/07/14 00:46:29;;;;;;;32.58;12.25;;;29.30;99.90;;;;;;5013029;28;20036;-50
2023/07/14 00:49:04;;;;;;;30.95;12.95;;;29.40;99.90;;;;;;5000593;28;20014;-50
2023/07/14 00:51:34;;;;;;;27.80;11.55;;;29.40;99.90;;;;;;5009822;28;20045;-51
2023/07/14 00:53:59;;;;;;;35.53;13.10;;;29.40;99.90;;;;;;5003284;28;20018;-52
2023/07/14 00:56:47;;;;;;;26.67;12.35;;;29.40;99.90;;;;;;5012900;28;20100;-52
2023/07/14 00:59:16;;;;;;;25.38;11.25;;;29.40;99.90;;;;;;5013683;28;20366;-51
2023/07/14 01:02:10;;;;;;;31.92;11.40;;;29.40;99.90;;;;;;5025486;23;20084;-48
2023/07/14 01:04:41;;;;;;;25.25;10.85;;;29.40;99.90;;;;;;5012754;28;20025;-49
2023/07/14 01:07:08;;;;;;;24.45;11.75;;;29.40;99.90;;;;;;5028045;28;20025;-48
2023/07/14 01:09:34;;;;;;;32.50;12.02;;;29.50;99.90;;;;;;5010739;28;20034;-48
2023/07/14 01:12:02;;;;;;;32.93;11.17;;;29.60;99.90;;;;;;5011411;28;20037;-48
2023/07/14 01:14:31;;;;;;;25.42;11.10;;;29.60;99.90;;;;;;5011623;28;20285;-48
2023/07/14 01:16:59;;;;;;;25.02;10.88;;;29.70;99.90;;;;;;5012329;28;20029;-48
2023/07/14 01:19:47;;;;;;;23.63;10.15;;;29.70;99.90;;;;;;5012522;28;20026;-48
2023/07/14 01:22:37;;;;;;;25.27;10.05;;;29.80;99.90;;;;;;5013014;28;20592;-48
2023/07/14 01:25:22;;;;;;;26.15;11.15;;;29.90;99.90;;;;;;5011853;28;20017;-48
2023/07/14 01:27:48;;;;;;;30.17;10.38;;;29.90;99.90;;;;;;5012638;28;20049;-48
2023/07/14 01:30:17;;;;;;;24.20;11.00;;;30.00;99.90;;;;;;5012908;28;20077;-48
2023/07/14 01:32:46;;;;;;;25.10;10.05;;;30.00;99.90;;;;;;5000444;28;20728;-48
2023/07/14 01:35:13;;;;;;;20.42;10.43;;;30.10;99.90;;;;;;5011368;28;20025;-48
2023/07/14 01:37:39;;;;;;;35.85;10.80;;;30.10;99.90;;;;;;5011390;28;20112;-48
2023/07/14 01:40:08;;;;;;;29.58;10.52;;;30.10;99.90;;;;;;5011218;28;20556;-48
2023/07/14 01:42:35;;;;;;;27.23;10.75;;;30.20;99.90;;;;;;5012650;28;20033;-48
2023/07/14 01:45:01;;;;;;;22.42;9.95;;;30.20;99.90;;;;;;5012389;28;20509;-48
2023/07/14 01:47:30;;;;;;;23.27;8.90;;;30.20;99.90;;;;;;5012640;28;20045;-48
2023/07/14 01:49:59;;;;;;;25.73;10.00;;;30.30;99.90;;;;;;5012299;28;20443;-48
2023/07/14 01:52:29;;;;;;;24.05;8.32;;;30.30;99.90;;;;;;5010829;28;20040;-49
2023/07/14 01:55:04;;;;;;;24.83;10.10;;;30.30;99.90;;;;;;5012598;28;20026;-49
2023/07/14 01:57:34;;;;;;;24.98;9.13;;;30.30;99.90;;;;;;5000725;28;20036;-49
2023/07/14 02:00:06;;;;;;;22.83;9.43;;;30.30;99.90;;;;;;5012693;28;20018;-48
2023/07/14 02:02:36;;;;;;;24.95;10.45;;;30.40;99.90;;;;;;5013353;28;20038;-49
2023/07/14 02:05:10;;;;;;;16.75;7.97;;;30.40;99.90;;;;;;5011317;28;20053;-49
2023/07/14 02:07:36;;;;;;;19.20;8.75;;;30.40;99.90;;;;;;5010583;28;20048;-48
2023/07/14 02:10:02;;;;;;;16.02;7.88;;;30.40;99.90;;;;;;5010691;28;20034;-48
2023/07/14 02:12:31;;;;;;;19.60;8.35;;;30.40;99.90;;;;;;5025466;28;20038;-48
2023/07/14 02:15:07;;;;;;;24.85;8.93;;;30.40;99.90;;;;;;5010540;28;20049;-48
2023/07/14 02:17:35;;;;;;;19.23;8.23;;;30.40;99.90;;;;;;5010585;28;20034;-48
2023/07/14 02:20:06;;;;;;;16.80;7.97;;;30.40;99.90;;;;;;5010410;28;20026;-48
2023/07/14 02:22:35;;;;;;;20.33;8.57;;;30.40;99.90;;;;;;5011275;28;20021;-48
2023/07/14 02:25:03;;;;;;;21.23;8.63;;;30.50;99.90;;;;;;5016540;28;20033;-48
2023/07/14 02:27:28;;;;;;;23.27;8.43;;;30.50;99.90;;;;;;5031506;28;20449;-48
2023/07/14 02:30:00;;;;;;;20.08;8.77;;;30.50;99.90;;;;;;5016194;28;20109;-48
2023/07/14 02:32:32;;;;;;;29.08;8.93;;;30.50;99.90;;;;;;5015037;28;20446;-49
2023/07/14 02:35:09;;;;;;;20.83;8.90;;;30.50;99.90;;;;;;5031481;28;20025;-49
2023/07/14 02:37:42;;;;;;;21.65;9.40;;;30.50;99.90;;;;;;5016613;28;20430;-49
2023/07/14 02:40:11;;;;;;;21.63;8.30;;;30.50;99.90;;;;;;5016319;28;20076;-49
2023/07/14 02:42:38;;;;;;;16.80;8.32;;;30.50;99.90;;;;;;5016126;28;20394;-49
2023/07/14 02:45:05;;;;;;;18.63;8.15;;;30.50;99.90;;;;;;5016064;28;20093;-49
2023/07/14 02:47:35;;;;;;;30.50;8.02;;;30.50;99.90;;;;;;5016029;28;20121;-49
2023/07/14 02:50:01;;;;;;;19.15;7.60;;;30.60;99.90;;;;;;5015959;28;20474;-49
2023/07/14 02:52:27;;;;;;;22.45;8.55;;;30.50;99.90;;;;;;5015812;28;20073;-49
2023/07/14 02:54:53;;;;;;;23.23;7.80;;;30.60;99.90;;;;;;5015749;28;20057;-49
2023/07/14 02:57:19;;;;;;;17.17;8.00;;;30.50;99.90;;;;;;5015807;28;20053;-49
2023/07/14 02:59:44;;;;;;;25.25;8.68;;;30.50;99.90;;;;;;5014660;28;20088;-49
2023/07/14 03:02:10;;;;;;;23.27;7.97;;;30.60;99.90;;;;;;5050629;22;20407;-52
2023/07/14 03:04:36;;;;;;;20.40;7.35;;;30.60;99.90;;;;;;5015943;28;20148;-52
2023/07/14 03:07:02;;;;;;;26.58;8.40;;;30.60;99.90;;;;;;5015561;28;20026;-53
2023/07/14 03:09:28;;;;;;;22.23;8.00;;;30.60;99.90;;;;;;5015494;28;20037;-51
2023/07/14 03:11:54;;;;;;;19.80;8.77;;;30.60;99.90;;;;;;5015346;28;20490;-51
2023/07/14 03:14:20;;;;;;;21.42;8.45;;;30.60;99.90;;;;;;5015502;28;20443;-51
2023/07/14 03:16:45;;;;;;;24.45;8.10;;;30.60;99.90;;;;;;5015349;28;20050;-51
2023/07/14 03:19:11;;;;;;;17.63;7.70;;;30.60;99.90;;;;;;5015382;28;20022;-52
2023/07/14 03:21:38;;;;;;;17.13;8.27;;;30.60;99.90;;;;;;5015574;28;20032;-52
2023/07/14 03:24:05;;;;;;;18.10;7.72;;;30.60;99.90;;;;;;5015466;28;20018;-52
2023/07/14 03:26:31;;;;;;;22.27;8.32;;;30.60;99.90;;;;;;5015164;28;20049;-52
2023/07/14 03:28:57;;;;;;;20.40;8.20;;;30.70;99.90;;;;;;5015222;28;20130;-53
2023/07/14 03:31:23;;;;;;;20.00;8.02;;;30.70;99.90;;;;;;5015156;28;20026;-54
2023/07/14 03:33:49;;;;;;;19.77;8.40;;;30.70;99.90;;;;;;5015161;28;20034;-52
2023/07/14 03:36:16;;;;;;;19.23;7.85;;;30.70;99.90;;;;;;5014210;28;20084;-52
2023/07/14 03:38:44;;;;;;;22.70;8.60;;;30.70;99.90;;;;;;5030173;28;20026;-53
2023/07/14 03:41:10;;;;;;;;;;;30.70;99.90;;;;;;5015347;28;20485;-51
2023/07/14 03:43:36;;;;;;;22.75;8.70;;;30.80;99.90;;;;;;5015106;28;19909;-52
2023/07/14 03:46:02;;;;;;;23.33;8.02;;;30.80;99.90;;;;;;5014829;28;20046;-53
2023/07/14 03:48:27;;;;;;;24.58;8.18;;;30.80;99.90;;;;;;5014866;28;20040;-53
2023/07/14 03:51:00;;;;;;;23.48;8.13;;;30.80;99.90;;;;;;4995048;28;20044;-52
2023/07/14 03:53:25;;;;;;;21.20;8.25;;;30.80;99.90;;;;;;4994332;28;20625;-52
2023/07/14 03:55:51;;;;;;;29.35;9.00;;;30.80;99.90;;;;;;4993375;28;20023;-53
2023/07/14 03:58:17;;;;;;;20.73;8.05;;;30.80;99.90;;;;;;4993087;28;20594;-52
2023/07/14 04:00:43;;;;;;;19.15;7.80;;;30.80;99.90;;;;;;4993509;28;20455;-51
2023/07/14 04:03:09;;;;;;;22.23;8.55;;;30.80;99.90;;;;;;4993288;28;20165;-52
2023/07/14 04:05:34;;;;;;;21.98;8.75;;;30.80;99.90;;;;;;4993165;28;20023;-52
2023/07/14 04:08:00;;;;;;;23.70;9.05;;;30.80;99.90;;;;;;4992971;28;20714;-52
2023/07/14 04:10:26;;;;;;;22.73;8.45;;;30.90;99.90;;;;;;4993870;28;20026;-52
2023/07/14 04:12:52;;;;;;;17.15;8.25;;;30.90;99.90;;;;;;4994785;28;20042;-52
2023/07/14 04:15:19;;;;;;;25.90;8.55;;;30.80;99.90;;;;;;4994639;28;20018;-51
2023/07/14 04:17:45;;;;;;;28.25;9.48;;;30.90;99.90;;;;;;4994584;28;20018;-51
2023/07/14 04:20:11;;;;;;;24.30;8.77;;;30.90;99.90;;;;;;4994507;28;20022;-52
2023/07/14 04:22:37;;;;;;;20.67;8.70;;;30.90;99.90;;;;;;4994893;28;20033;-52
2023/07/14 04:25:03;;;;;;;23.25;7.50;;;30.90;99.90;;;;;;4994538;28;20026;-52
2023/07/14 04:27:29;;;;;;;21.40;8.63;;;30.90;99.90;;;;;;4994398;28;20097;-51
2023/07/14 04:29:55;;;;;;;15.43;8.45;;;30.90;99.90;;;;;;4994309;28;20026;-51
2023/07/14 04:32:21;;;;;;;29.08;8.75;;;30.90;99.90;;;;;;4994186;28;20133;-51
2023/07/14 04:34:49;;;;;;;20.80;8.43;;;30.90;99.90;;;;;;4994394;28;20109;-51
2023/07/14 04:37:16;;;;;;;18.38;7.57;;;30.90;99.90;;;;;;4999580;28;20026;-51
2023/07/14 04:39:41;;;;;;;17.23;8.23;;;30.90;99.90;;;;;;5013693;28;20014;-52
2023/07/14 04:42:07;;;;;;;22.17;8.27;;;30.90;99.90;;;;;;5007052;28;20052;-51
2023/07/14 04:44:33;;;;;;;31.20;8.57;;;30.90;99.90;;;;;;5013369;28;20033;-52
2023/07/14 04:46:59;;;;;;;22.95;7.88;;;31.00;99.90;;;;;;5013292;28;20026;-52
2023/07/14 04:49:25;;;;;;;19.80;9.88;;;30.90;99.90;;;;;;5013479;28;20025;-53
2023/07/14 04:51:51;;;;;;;22.90;8.80;;;30.90;99.90;;;;;;5013188;28;20040;-52
2023/07/14 04:54:17;;;;;;;17.13;8.38;;;30.90;99.90;;;;;;5013107;28;20022;-52
2023/07/14 04:56:44;;;;;;;25.65;9.43;;;30.90;99.90;;;;;;5013380;28;20041;-52
2023/07/14 04:59:10;;;;;;;24.92;8.77;;;30.90;99.90;;;;;;5013245;28;20018;-52
2023/07/14 05:01:36;;;;;;;19.90;8.30;;;30.90;99.90;;;;;;5012981;28;20053;-53
2023/07/14 05:04:02;;;;;;;20.08;8.57;;;30.90;99.90;;;;;;5013054;28;20018;-52
2023/07/14 05:06:28;;;;;;;17.70;8.13;;;30.90;99.90;;;;;;5013036;28;20391;-52
2023/07/14 05:08:54;;;;;;;24.88;8.93;;;30.90;99.90;;;;;;5011651;28;20025;-52
2023/07/14 05:11:20;;;;;;;18.17;8.57;;;30.90;99.90;;;;;;5012565;28;20589;-52
2023/07/14 05:13:49;;;;;;;22.35;9.90;;;30.90;99.90;;;;;;5012821;28;20493;-52
2023/07/14 05:16:15;;;;;;;18.55;8.93;;;31.00;99.90;;;;;;5012657;28;20045;-53
2023/07/14 05:18:41;;;;;;;23.27;9.00;;;31.00;99.90;;;;;;5013356;28;20100;-52
2023/07/14 05:21:07;;;;;;;25.38;9.48;;;31.00;99.90;;;;;;5012683;28;20373;-52
2023/07/14 05:23:33;;;;;;;20.02;8.48;;;31.00;99.90;;;;;;5012946;28;20018;-52
2023/07/14 05:25:59;;;;;;;21.58;9.18;;;31.00;99.90;;;;;;5012739;28;20030;-52
2023/07/14 05:28:25;;;;;;;22.58;9.32;;;31.00;99.90;;;;;;5012807;28;20084;-54
2023/07/14 05:30:52;;;;;;;25.17;9.40;;;30.90;99.90;;;;;;5012593;28;20034;-52
2023/07/14 05:33:19;;;;;;;26.63;9.15;;;31.00;99.90;;;;;;5012617;28;20030;-52
2023/07/14 05:35:45;;;;;;;33.47;9.82;;;31.00;99.90;;;;;;5012547;28;20030;-52
2023/07/14 05:38:12;;;;;;;21.73;9.30;;;31.00;99.90;;;;;;5012852;28;20102;-52
2023/07/14 05:40:38;;;;;;;29.37;10.47;;;31.00;99.90;;;;;;5012500;28;20084;-53
2023/07/14 05:43:03;;;;;;;24.00;9.63;;;31.00;99.90;;;;;;5012446;28;20022;-54
2023/07/14 05:45:30;;;;;;;20.65;9.90;;;30.90;99.90;;;;;;5012412;28;20034;-52
2023/07/14 05:47:55;;;;;;;23.90;8.13;;;30.90;99.90;;;;;;5003938;28;20105;-52
2023/07/14 05:50:21;;;;;;;25.27;8.95;;;30.90;99.90;;;;;;5007923;28;20453;-52
2023/07/14 05:52:47;;;;;;;27.52;10.43;;;31.00;99.90;;;;;;5012251;28;20383;-52
2023/07/14 05:55:14;;;;;;;29.08;9.65;;;30.90;99.90;;;;;;5012344;28;20018;-52
2023/07/14 05:57:39;;;;;;;24.20;8.98;;;30.90;99.90;;;;;;5011966;28;20018;-52
2023/07/14 06:00:16;;;;;;;22.83;9.63;;;30.90;99.90;;;;;;5011045;28;20033;-52
2023/07/14 06:02:44;;;;;;;24.02;9.35;;;30.90;99.90;;;;;;5012186;28;20073;-52
2023/07/14 06:05:11;;;;;;;21.50;9.98;;;30.90;99.90;;;;;;5012340;28;20375;-53
2023/07/14 06:07:38;;;;;;;33.33;9.75;;;30.90;99.90;;;;;;5012155;28;20032;-53
2023/07/14 06:10:04;;;;;;;29.67;9.38;;;30.80;99.90;;;;;;5012170;28;20033;-53
2023/07/14 06:12:30;;;;;;;26.90;9.15;;;30.80;99.90;;;;;;5008218;28;20383;-53
2023/07/14 06:14:56;;;;;;;25.55;9.55;;;30.80;99.90;;;;;;5003050;28;20028;-53
2023/07/14 06:17:22;;;;;;;22.73;10.25;;;30.80;99.90;;;;;;5012076;28;20025;-52
2023/07/14 06:19:47;;;;;;;24.88;8.23;;;30.80;99.90;;;;;;5010880;28;20374;-52
2023/07/14 06:22:13;;;;;;;23.67;9.45;;;30.80;99.90;;;;;;5010855;28;20387;-52
2023/07/14 06:24:40;;;;;;;23.67;8.95;;;30.80;99.90;;;;;;5011990;28;20483;-52
2023/07/14 06:27:06;;;;;;;19.77;9.30;;;30.80;99.90;;;;;;5011985;28;20104;-53
2023/07/14 06:29:33;;;;;;;28.93;9.23;;;30.80;99.90;;;;;;5012057;28;20101;-53
2023/07/14 06:32:00;;;;;;;24.33;8.63;;;30.80;99.90;;;;;;5011997;28;20108;-53
2023/07/14 06:34:26;;;;;;;22.58;8.48;;;30.90;99.90;;;;;;5010641;28;20469;-53
2023/07/14 06:36:52;;;;;;;34.13;10.50;;;30.90;99.90;;;;;;5011746;28;20479;-52
2023/07/14 06:39:22;;;;;;;28.00;11.05;;;30.90;99.90;;;;;;5012170;28;20028;-52
2023/07/14 06:41:48;;;;;;;29.73;9.55;;;30.80;99.90;;;;;;5012127;28;20465;-52
2023/07/14 06:44:15;;;;;;;23.83;9.38;;;30.90;99.90;;;;;;5009304;28;20026;-53
2023/07/14 06:46:42;;;;;;;24.88;10.43;;;30.80;99.90;;;;;;5004130;28;20021;-52
2023/07/14 06:49:07;;;;;;;29.77;11.00;;;30.80;99.90;;;;;;5011730;28;20174;-52
2023/07/14 06:51:34;;;;;;;23.42;10.18;;;30.80;99.90;;;;;;5011750;28;20034;-52
2023/07/14 06:54:00;;;;;;;37.60;11.02;;;30.80;99.90;;;;;;5011670;28;20044;-52
2023/07/14 06:56:26;;;;;;;21.80;9.32;;;30.80;99.90;;;;;;5011632;28;20057;-52
2023/07/14 06:58:52;;;;;;;30.80;11.82;;;30.70;99.90;;;;;;5011569;28;20497;-53
2023/07/14 07:01:20;;;;;;;20.33;9.00;;;30.70;99.90;;;;;;5011678;28;20045;-54
2023/07/14 07:03:45;;;;;;;24.25;9.40;;;30.70;99.90;;;;;;5011861;28;20022;-53
2023/07/14 07:06:14;;;;;;;23.95;9.15;;;30.70;99.90;;;;;;5011813;28;20493;-53
2023/07/14 07:08:40;;;;;;;22.33;9.18;;;30.70;99.90;;;;;;5011559;28;20022;-53
2023/07/14 07:11:05;;;;;;;24.05;9.13;;;30.80;99.90;;;;;;5013744;28;20057;-53
2023/07/14 07:13:31;;;;;;;28.42;9.77;;;30.70;99.90;;;;;;5015301;28;20471;-53
2023/07/14 07:15:57;;;;;;;23.35;10.65;;;30.80;99.90;;;;;;5015042;28;20041;-53
2023/07/14 07:18:26;;;;;;;16.25;8.40;;;30.80;99.90;;;;;;5013921;28;20049;-53
2023/07/14 07:20:52;;;;;;;20.17;8.73;;;30.80;99.90;;;;;;5014975;28;20463;-51
2023/07/14 07:23:18;;;;;;;29.58;9.05;;;30.80;99.90;;;;;;5015286;28;20036;-52
2023/07/14 07:25:48;;;;;;;25.45;9.48;;;30.70;99.90;;;;;;5014866;28;20018;-52
2023/07/14 07:28:14;;;;;;;29.13;9.90;;;30.80;99.90;;;;;;5014919;28;20029;-52
2023/07/14 07:30:40;;;;;;;27.63;10.90;;;30.80;99.90;;;;;;5014634;28;20026;-52
2023/07/14 07:33:06;;;;;;;31.45;11.68;;;30.80;99.90;;;;;;5014847;28;20371;-51
2023/07/14 07:35:31;;;;;;;22.38;9.00;;;30.80;99.90;;;;;;5014849;28;20489;-52
2023/07/14 07:37:59;;;;;;;28.60;9.55;;;30.70;99.90;;;;;;5014815;28;20017;-52
2023/07/14 07:40:25;;;;;;;23.77;9.50;;;30.80;99.90;;;;;;5014640;28;20026;-52
2023/07/14 07:42:50;;;;;;;27.10;11.30;;;30.70;99.90;;;;;;5014913;28;20471;-51
2023/07/14 07:45:16;;;;;;;22.90;8.95;;;30.80;99.90;;;;;;5002305;28;20113;-52
2023/07/14 07:47:42;;;;;;;17.63;9.45;;;30.70;99.90;;;;;;5014512;28;20022;-52
2023/07/14 07:50:08;;;;;;;26.52;9.75;;;30.70;99.90;;;;;;5014535;28;20486;-52
2023/07/14 07:52:34;;;;;;;22.52;9.05;;;30.70;99.90;;;;;;5014410;28;20026;-53
2023/07/14 07:55:00;;;;;;;19.02;9.55;;;30.80;99.90;;;;;;5014440;28;20105;-52
2023/07/14 07:57:25;;;;;;;21.75;9.88;;;30.70;99.90;;;;;;5011316;28;20014;-51
2023/07/14 07:59:51;;;;;;;33.42;10.82;;;30.80;99.90;;;;;;5004713;28;20033;-52
2023/07/14 08:02:17;;;;;;;24.73;10.27;;;30.80;99.90;;;;;;5012854;28;20042;-52
2023/07/14 08:04:43;;;;;;;28.95;12.95;;;30.80;99.90;;;;;;5005780;28;20477;-52
2023/07/14 08:07:12;;;;;;;34.00;10.48;;;30.80;99.90;;;;;;5009679;28;20033;-52
2023/07/14 08:09:39;;;;;;;27.90;9.85;;;30.80;99.90;;;;;;5014232;28;20018;-52
2023/07/14 08:12:05;;;;;;;23.25;10.45;;;30.80;99.90;;;;;;5013929;28;20070;-52
2023/07/14 08:14:32;;;;;;;22.33;9.43;;;30.70;99.90;;;;;;5014015;28;20018;-52
2023/07/14 08:16:58;;;;;;;35.47;12.23;;;30.70;99.90;;;;;;5012814;28;20390;-53
2023/07/14 08:19:24;;;;;;;28.60;10.35;;;30.70;99.90;;;;;;5001042;28;20105;-53
2023/07/14 08:21:50;;;;;;;22.60;9.90;;;30.70;99.90;;;;;;5013733;28;20102;-53
2023/07/14 08:24:15;;;;;;;21.10;10.13;;;30.70;99.90;;;;;;5012576;28;20030;-53
2023/07/14 08:26:41;;;;;;;25.98;10.88;;;30.80;99.90;;;;;;5013821;28;20072;-53
2023/07/14 08:29:08;;;;;;;23.70;10.05;;;30.70;99.90;;;;;;5013575;28;20018;-52
2023/07/14 08:31:34;;;;;;;;;;;30.80;99.90;;;;;;5013948;28;20060;-53
2023/07/14 08:34:00;;;;;;;24.60;10.48;;;30.80;99.90;;;;;;5013668;28;19999;-53
2023/07/14 08:36:26;;;;;;;20.55;9.50;;;30.80;99.90;;;;;;5012407;28;20521;-53
2023/07/14 08:38:54;;;;;;;22.13;10.43;;;30.80;99.90;;;;;;5013692;28;20018;-53
2023/07/14 08:41:20;;;;;;;32.28;12.70;;;30.80;99.90;;;;;;5013599;28;20021;-53
2023/07/14 08:44:00;;;;;;;25.08;11.40;;;30.80;99.90;;;;;;5012869;28;20034;-53
2023/07/14 08:46:41;;;;;;;21.55;10.15;;;30.70;99.90;;;;;;5003403;28;20064;-53
2023/07/14 08:49:13;;;;;;;24.42;10.18;;;30.70;99.90;;;;;;5013149;28;20475;-53
2023/07/14 08:51:44;;;;;;;31.10;13.55;;;30.70;99.90;;;;;;5009456;28;20029;-52
2023/07/14 08:54:19;;;;;;;30.58;10.93;;;30.70;99.90;;;;;;5013002;28;20026;-52
2023/07/14 08:56:46;;;;;;;30.40;11.60;;;30.70;99.90;;;;;;5013377;28;20346;-53
2023/07/14 08:59:38;;;;;;;30.73;11.32;;;30.60;99.90;;;;;;5012929;28;20033;-53
2023/07/14 09:02:51;;;;;;;25.05;10.43;;;30.60;99.90;;;;;;5009841;28;20502;-52
2023/07/14 09:05:24;;;;;;;34.88;12.65;;;30.60;99.90;;;;;;4988415;28;20057;-53
2023/07/14 09:07:51;;;;;;;28.65;11.65;;;30.50;99.90;;;;;;5009555;28;20467;-52
2023/07/14 09:10:18;;;;;;;29.85;11.48;;;30.50;99.90;;;;;;5012863;28;20445;-52
2023/07/14 09:13:32;;;;;;;24.55;10.55;;;30.40;99.90;;;;;;5012855;28;20115;-51
2023/07/14 09:15:58;;;;;;;33.75;11.02;;;30.30;99.90;;;;;;5010836;28;20048;-52
2023/07/14 09:18:33;;;;;;;31.48;11.65;;;30.30;99.90;;;;;;5012888;28;20105;-53
2023/07/14 09:21:12;;;;;;;37.47;12.32;;;30.20;99.90;;;;;;5012889;28;20026;-52
2023/07/14 09:23:53;;;;;;;25.25;12.00;;;30.20;99.90;;;;;;5012195;28;20109;-53
2023/07/14 09:26:33;;;;;;;32.63;12.15;;;30.20;99.90;;;;;;5012608;28;20030;-52
2023/07/14 09:29:07;;;;;;;31.92;13.25;;;30.20;99.90;;;;;;5012654;28;20014;-53
2023/07/14 09:32:04;;;;;;;26.23;11.57;;;30.20;99.90;;;;;;5012160;28;20033;-52
2023/07/14 09:34:40;;;;;;;29.70;13.10;;;30.20;99.90;;;;;;5012092;28;20160;-52
2023/07/14 09:37:17;;;;;;;34.65;13.55;;;30.20;99.90;;;;;;5011772;28;20042;-52
2023/07/14 09:39:43;;;;;;;;;;;30.20;99.90;;;;;;5012034;28;20045;-52
2023/07/14 09:42:32;;;;;;;27.70;12.45;;;30.20;99.90;;;;;;5011407;28;19909;-52
2023/07/14 09:45:09;;;;;;;30.05;11.13;;;30.20;99.90;;;;;;5026916;28;20545;-51
2023/07/14 09:47:35;;;;;;;28.27;10.85;;;30.20;99.90;;;;;;5012225;28;20026;-52
2023/07/14 09:50:02;;;;;;;35.15;11.43;;;30.20;99.90;;;;;;5006699;28;20037;-51
2023/07/14 09:52:29;;;;;;;28.35;10.27;;;30.20;99.90;;;;;;5009879;28;20402;-49
2023/07/14 09:54:58;;;;;;;23.50;10.20;;;30.30;99.90;;;;;;5009965;28;20141;-53
2023/07/14 09:57:32;;;;;;;31.42;10.60;;;30.30;99.90;;;;;;5006748;28;20021;-51
2023/07/14 10:00:14;;;;;;;25.90;12.18;;;30.30;99.90;;;;;;5009982;28;20442;-51
2023/07/14 10:02:41;;;;;;;25.55;11.77;;;30.30;99.90;;;;;;5008478;28;20121;-52
2023/07/14 10:05:26;;;;;;;37.72;12.70;;;30.30;99.90;;;;;;5009582;28;20462;-51
2023/07/14 10:07:53;;;;;;;28.20;11.65;;;30.40;99.90;;;;;;5006442;28;20018;-51
2023/07/14 10:10:24;;;;;;;22.70;10.27;;;30.40;99.90;;;;;;5009906;28;20033;-51
2023/07/14 10:12:51;;;;;;;34.22;12.70;;;30.30;99.90;;;;;;5007913;28;20112;-51
2023/07/14 10:15:32;;;;;;;27.92;11.07;;;30.30;99.90;;;;;;5009501;28;20109;-50
2023/07/14 10:18:18;;;;;;;28.75;10.55;;;30.30;99.90;;;;;;5007115;28;20018;-51
2023/07/14 10:21:05;;;;;;;23.67;10.00;;;30.40;99.90;;;;;;5008902;28;20030;-51
2023/07/14 10:23:32;;;;;;;30.75;10.93;;;30.30;99.90;;;;;;5008847;28;20071;-51
2023/07/14 10:25:57;;;;;;;31.17;11.23;;;30.40;99.90;;;;;;5009454;28;20032;-51
2023/07/14 10:28:30;;;;;;;26.80;10.18;;;30.40;99.90;;;;;;5009577;28;20358;-51
2023/07/14 10:30:59;;;;;;;30.65;10.52;;;30.40;99.90;;;;;;5009768;28;21989;-51
2023/07/14 10:33:33;;;;;;;34.33;10.75;;;30.50;99.90;;;;;;5009569;28;20033;-50
2023/07/14 10:36:13;;;;;;;35.83;10.68;;;30.50;99.90;;;;;;5003949;28;20026;-51
2023/07/14 10:38:53;;;;;;;24.65;11.18;;;30.50;99.90;;;;;;5009872;28;20616;-51
2023/07/14 10:41:22;;;;;;;30.00;11.23;;;30.40;99.90;;;;;;5007683;28;20045;-51
2023/07/14 10:43:59;;;;;;;27.40;10.75;;;30.40;99.90;;;;;;5008944;28;20046;-50
2023/07/14 10:46:29;;;;;;;28.83;9.70;;;30.40;99.90;;;;;;5011023;28;20084;-50
2023/07/14 10:49:00;;;;;;;36.00;10.85;;;30.50;99.90;;;;;;5012887;28;20382;-50
2023/07/14 10:51:46;;;;;;;38.47;11.75;;;30.40;99.90;;;;;;5008849;28;20142;-50
2023/07/14 10:54:23;;;;;;;32.53;11.50;;;30.40;99.90;;;;;;5013270;28;20033;-51
2023/07/14 10:56:58;;;;;;;31.55;11.63;;;30.40;99.90;;;;;;5013101;28;20325;-50
2023/07/14 10:59:34;;;;;;;33.92;11.02;;;30.40;99.90;;;;;;5013251;28;20022;-50
2023/07/14 11:02:32;;;;;;;31.92;11.60;;;30.40;99.90;;;;;;5012920;28;20076;-51
2023/07/14 11:05:19;;;;;;;31.08;11.77;;;30.40;99.90;;;;;;5013214;28;20278;-51
2023/07/14 11:07:45;;;;;;;28.17;11.80;;;30.40;99.90;;;;;;5012733;28;20018;-50
2023/07/14 11:10:50;;;;;;;33.70;12.60;;;30.40;99.90;;;;;;5012735;28;20025;-50
2023/07/14 11:13:23;;;;;;;28.65;12.60;;;30.30;99.90;;;;;;5011522;28;20045;-52
2023/07/14 11:15:55;;;;;;;32.95;14.18;;;30.30;99.90;;;;;;5012688;28;20216;-51
2023/07/14 11:18:42;;;;;;;33.42;12.63;;;30.30;99.90;;;;;;5012777;28;20100;-52
2023/07/14 11:21:32;;;;;;;29.50;11.07;;;30.30;99.90;;;;;;5012718;28;20026;-53
2023/07/14 11:24:20;;;;;;;30.33;11.23;;;30.20;99.90;;;;;;5012418;28;20128;-52
2023/07/14 11:27:09;;;;;;;37.85;11.93;;;30.20;99.90;;;;;;5011918;28;20021;-52
2023/07/14 11:29:51;;;;;;;30.30;10.30;;;30.10;99.90;;;;;;5010059;28;20398;-52
2023/07/14 11:32:20;;;;;;;25.70;10.60;;;30.10;99.90;;;;;;5012449;28;20129;-52
2023/07/14 11:35:20;;;;;;;23.38;9.77;;;30.10;99.90;;;;;;5011260;28;20490;-51
2023/07/14 11:37:53;;;;;;;35.35;11.55;;;30.10;99.90;;;;;;5011730;28;20045;-51
2023/07/14 11:40:22;;;;;;;35.17;11.13;;;30.20;99.90;;;;;;5012703;28;20133;-52
2023/07/14 11:42:55;;;;;;;29.55;9.98;;;30.20;99.90;;;;;;5009124;28;20025;-52
2023/07/14 11:45:26;;;;;;;29.40;11.27;;;30.20;99.90;;;;;;5011834;28;20022;-51
2023/07/14 11:47:57;;;;;;;25.00;10.27;;;30.20;99.90;;;;;;5012116;28;20022;-52
2023/07/14 11:50:27;;;;;;;29.58;10.80;;;30.20;99.90;;;;;;5009537;28;20018;-52
2023/07/14 11:53:20;;;;;;;40.45;11.32;;;30.20;99.90;;;;;;5008504;28;20072;-52
2023/07/14 11:55:49;;;;;;;31.65;10.77;;;30.20;99.90;;;;;;5007964;28;20072;-51
2023/07/14 11:58:27;;;;;;;35.80;10.65;;;30.20;99.90;;;;;;5011984;28;20029;-51
2023/07/14 12:01:03;;;;;;;34.30;13.30;;;30.20;99.90;;;;;;5012128;28;20018;-52
2023/07/14 12:03:38;;;;;;;34.30;11.63;;;30.30;99.90;;;;;;5010082;28;20114;-52
2023/07/14 12:06:19;;;;;;;29.98;10.93;;;30.30;99.90;;;;;;5011740;28;20048;-52
2023/07/14 12:09:10;;;;;;;29.75;10.82;;;30.30;99.90;;;;;;5011705;28;20026;-51
2023/07/14 12:11:39;;;;;;;31.85;12.05;;;30.30;99.90;;;;;;5010160;28;20037;-51
2023/07/14 12:14:36;;;;;;;29.27;9.95;;;30.40;99.90;;;;;;5010424;28;20044;-53
2023/07/14 12:17:03;;;;;;;;;;;30.30;99.90;;;;;;5009805;28;20030;-53
2023/07/14 12:19:47;;;;;;;26.15;12.10;;;30.30;99.90;;;;;;5011517;28;20440;-52
2023/07/14 12:22:33;;;;;;;31.30;11.02;;;30.40;99.90;;;;;;5008837;28;20072;-52
2023/07/14 12:24:59;;;;;;;28.38;10.25;;;30.30;99.90;;;;;;5010897;28;20029;-52
2023/07/14 12:27:34;;;;;;;32.83;11.65;;;30.30;99.90;;;;;;5010605;28;20355;-52
2023/07/14 12:30:21;;;;;;;30.33;10.38;;;30.40;99.90;;;;;;5008026;28;20446;-51
2023/07/14 12:32:47;;;;;;;27.50;10.20;;;30.40;99.90;;;;;;5011164;28;20113;-51
2023/07/14 12:35:15;;;;;;;33.47;12.23;;;30.40;99.90;;;;;;5011049;28;20034;-52
2023/07/14 12:37:41;;;;;;;26.17;14.75;;;30.40;99.90;;;;;;5011048;28;20169;-50
2023/07/14 12:40:25;;;;;;;30.38;12.27;;;30.50;99.90;;;;;;5011636;28;20026;-50
2023/07/14 12:42:52;;;;;;;24.10;9.80;;;30.40;99.90;;;;;;5011361;28;20104;-50
2023/07/14 12:45:20;;;;;;;25.00;10.05;;;30.50;99.90;;;;;;5011051;28;20433;-49
2023/07/14 12:47:49;;;;;;;34.78;10.73;;;30.50;99.90;;;;;;5010810;28;20026;-52
2023/07/14 12:50:25;;;;;;;32.80;11.27;;;30.50;99.90;;;;;;5010866;28;20026;-52